Главная страница
METAR-TAF:

METAR-TAF

Аэропорты :

Киев, Украина

широта: 50-24N, долгота: 030-34E, высота над уровнем моря: 166 м

Текущие метеонаблюдения

Эта сводка был подготовлена 42 минут назад, в 02:00 UTC
Ветер 4 Узел от западный-юго-западный
Температура 15°C
Влажность 88%
Давление 1018 hPa
Видимость 10 км и более
Нет облачности ниже 1500 м, и нет кучево-дождевой облачности

METAR: UKKK 210200Z 24002MPS CAVOK 15/13 Q1018 R26/70D NOSIG

Время: 05:42 (02:42 UTC)

Прогноз

Эта сводка был подготовлена 3 часа и 39 минут назад, в 23:03 UTC
Прогноз действительный с 21-го 00 UTC до 21-го 24 UTC
Ветер 6 Узел от южный-юго-западный с порывами до 16 Узел
Видимость 10 км и более
Отдельные облака на высоте 3000 фута
изменения
С 21-го 05 UTC до 21-го 07 UTC
Ветер 10 Узел от южный с порывами до 19 Узел

TAF: UKKK 202303Z 2100/2124 21003G08MPS 9999 SCT030 TX29/2112Z TN15/2102Z BECMG 2105/2107 18005G10MPS

Метеонаблюдения и прогнозы для более 4000 аэропортов (сводки METAR и TAF).

Имеющиеся станции представлены на карте желтыми и красными точками.

Чтобы увидеть название станции, наведите на нее мышь.

Затем щелкните, чтобы увидеть метеонаблюдения и метеопрогнозы.

Управление картой: чтобы увеличить масштаб, щелкните зеленые кнопки с черным крестиком; чтобы уменьшить масштаб, щелкните зеленую кнопку с тире; для просмотра соседних карт щелкайте зеленые стрелки.


METAR-TAF: